Time;durP1;ratioP1;P1;durP2;ratioP2;P2;SDS_P1;SDS_P2;PMS_P1;PMS_P2;Temp;Humidity;BMP_temperature;BMP_pressure;BME280_temperature;BME280_humidity;BME280_pressure;Samples;Min_cycle;Max_cycle;Signal;HPM_P1;HPM_P2
2023/06/19 00:00:12;;;;;;;12.18;11.15;;;;;;;;;;2092153;28;20130;-66
2023/06/19 00:01:32;;;;;;;12.63;11.43;;;;;;;;;;2097222;28;20037;-64
2023/06/19 00:02:51;;;;;;;12.13;11.05;;;;;;;;;;2093382;28;20041;-65
2023/06/19 00:04:10;;;;;;;12.50;11.35;;;;;;;;;;2090120;28;20036;-64
2023/06/19 00:05:31;;;;;;;14.20;12.80;;;;;;;;;;2094283;28;20033;-65
2023/06/19 00:06:50;;;;;;;14.68;13.13;;;;;;;;;;2097378;28;20040;-65
2023/06/19 00:08:10;;;;;;;14.60;13.10;;;;;;;;;;2093128;28;20037;-65
2023/06/19 00:09:29;;;;;;;13.35;12.00;;;;;;;;;;2095214;28;20410;-65
2023/06/19 00:10:48;;;;;;;16.75;14.95;;;;;;;;;;2095955;28;20501;-66
2023/06/19 00:12:07;;;;;;;16.73;15.07;;;;;;;;;;2093438;28;20103;-66
2023/06/19 00:13:26;;;;;;;16.45;14.85;;;;;;;;;;2096585;28;20044;-65
2023/06/19 00:14:45;;;;;;;16.30;14.60;;;;;;;;;;2095029;28;20418;-66
2023/06/19 00:16:04;;;;;;;16.90;15.20;;;;;;;;;;2092770;28;20033;-66
2023/06/19 00:17:25;;;;;;;17.75;15.95;;;;;;;;;;2094108;28;20032;-66
2023/06/19 00:18:45;;;;;;;19.13;17.08;;;;;;;;;;2082313;28;20716;-65
2023/06/19 00:20:05;;;;;;;18.10;15.63;;;;;;;;;;2092149;28;20037;-65
2023/06/19 00:21:25;;;;;;;18.88;16.73;;;;;;;;;;2092893;28;20389;-66
2023/06/19 00:22:44;;;;;;;20.38;16.92;;;;;;;;;;2091692;28;20029;-66
2023/06/19 00:24:03;;;;;;;18.55;16.70;;;;;;;;;;2092746;28;20107;-66
2023/06/19 00:25:22;;;;;;;18.27;16.30;;;;;;;;;;2095317;28;20420;-64
2023/06/19 00:26:43;;;;;;;22.52;18.60;;;;;;;;;;2093468;28;20476;-65
2023/06/19 00:28:02;;;;;;;20.63;17.50;;;;;;;;;;2092520;28;20064;-64
2023/06/19 00:29:21;;;;;;;22.35;18.48;;;;;;;;;;2095571;28;20450;-65
2023/06/19 00:30:40;;;;;;;17.77;15.93;;;;;;;;;;2087969;28;20662;-65
2023/06/19 00:31:59;;;;;;;20.58;18.33;;;;;;;;;;2096563;28;20119;-65
2023/06/19 00:33:18;;;;;;;20.08;18.00;;;;;;;;;;2093177;28;20036;-65
2023/06/19 00:34:37;;;;;;;25.58;17.70;;;;;;;;;;2093572;28;20041;-65
2023/06/19 00:35:56;;;;;;;21.08;17.23;;;;;;;;;;2095899;28;20064;-64
2023/06/19 00:37:15;;;;;;;21.55;17.67;;;;;;;;;;2092360;28;20025;-64
2023/06/19 00:38:33;;;;;;;18.40;16.48;;;;;;;;;;2088553;28;20036;-64
2023/06/19 00:39:52;;;;;;;18.70;16.80;;;;;;;;;;2087294;28;20770;-65
2023/06/19 00:41:11;;;;;;;17.67;15.77;;;;;;;;;;2094160;28;20025;-65
2023/06/19 00:42:30;;;;;;;19.05;17.05;;;;;;;;;;2096384;28;20024;-65
2023/06/19 00:43:52;;;;;;;22.70;17.50;;;;;;;;;;2092656;28;20025;-65
2023/06/19 00:45:10;;;;;;;20.73;18.17;;;;;;;;;;2091145;28;20567;-65
2023/06/19 00:46:30;;;;;;;19.92;17.73;;;;;;;;;;2096675;28;20025;-65
2023/06/19 00:47:49;;;;;;;19.45;17.30;;;;;;;;;;2095210;28;20056;-65
2023/06/19 00:49:08;;;;;;;20.85;17.17;;;;;;;;;;2096535;28;20040;-65
2023/06/19 00:50:29;;;;;;;20.02;16.88;;;;;;;;;;2090505;28;20585;-65
2023/06/19 00:51:47;;;;;;;18.88;16.88;;;;;;;;;;2096394;28;20032;-64
2023/06/19 00:53:07;;;;;;;20.23;17.83;;;;;;;;;;2093762;28;20032;-63
2023/06/19 00:54:26;;;;;;;20.55;18.40;;;;;;;;;;2086629;28;20029;-64
2023/06/19 00:55:47;;;;;;;19.92;17.77;;;;;;;;;;2093630;28;20061;-64
2023/06/19 00:57:07;;;;;;;18.08;15.93;;;;;;;;;;2095070;28;20025;-65
2023/06/19 00:58:26;;;;;;;17.42;15.75;;;;;;;;;;2093676;28;20024;-64
2023/06/19 00:59:45;;;;;;;21.00;16.63;;;;;;;;;;2094914;28;20025;-64
2023/06/19 01:01:05;;;;;;;19.50;16.23;;;;;;;;;;2092487;28;20032;-64
2023/06/19 01:02:24;;;;;;;18.88;16.85;;;;;;;;;;2091525;28;20033;-65
2023/06/19 01:03:43;;;;;;;18.20;16.40;;;;;;;;;;2096537;28;20036;-64
2023/06/19 01:05:03;;;;;;;18.38;16.27;;;;;;;;;;2094281;28;20036;-64
2023/06/19 01:06:28;;;;;;;18.33;16.40;;;;;;;;;;2094873;28;20485;-64
2023/06/19 01:08:05;;;;;;;17.95;16.02;;;;;;;;;;2093449;28;20028;-64
2023/06/19 01:09:37;;;;;;;18.73;16.25;;;;;;;;;;2093828;28;20489;-64
2023/06/19 01:10:57;;;;;;;18.05;16.25;;;;;;;;;;2094603;28;20044;-65
2023/06/19 01:12:19;;;;;;;17.48;15.60;;;;;;;;;;2094152;28;20032;-65
2023/06/19 01:13:44;;;;;;;17.77;15.88;;;;;;;;;;2090561;28;20428;-65
2023/06/19 01:15:05;;;;;;;17.73;15.93;;;;;;;;;;2090802;28;20107;-65
2023/06/19 01:16:26;;;;;;;18.42;16.42;;;;;;;;;;2085278;28;20029;-65
2023/06/19 01:17:47;;;;;;;17.88;16.08;;;;;;;;;;2091042;28;20028;-64
2023/06/19 01:19:09;;;;;;;18.00;16.30;;;;;;;;;;2093824;28;20037;-64
2023/06/19 01:20:28;;;;;;;18.20;15.82;;;;;;;;;;2092795;28;20025;-64
2023/06/19 01:21:48;;;;;;;17.67;15.98;;;;;;;;;;2084767;28;20025;-64
2023/06/19 01:23:11;;;;;;;16.35;14.75;;;;;;;;;;2091303;28;20028;-64
2023/06/19 01:24:30;;;;;;;;;;;;;;;;;;2092113;28;20076;-65
2023/06/19 01:25:49;;;;;;;15.88;14.43;;;;;;;;;;2095618;28;19904;-64
2023/06/19 01:27:08;;;;;;;16.95;15.23;;;;;;;;;;2095495;28;20040;-65
2023/06/19 01:28:28;;;;;;;16.55;15.10;;;;;;;;;;2093768;28;20120;-64
2023/06/19 01:29:47;;;;;;;17.02;15.43;;;;;;;;;;2093923;28;20036;-65
2023/06/19 01:31:11;;;;;;;16.83;15.13;;;;;;;;;;2091842;28;20086;-65
2023/06/19 01:32:42;;;;;;;16.70;15.13;;;;;;;;;;2092646;28;20037;-65
2023/06/19 01:34:03;;;;;;;16.55;14.95;;;;;;;;;;2087709;28;20032;-64
2023/06/19 01:35:24;;;;;;;16.88;15.27;;;;;;;;;;2093586;28;20537;-65
2023/06/19 01:36:44;;;;;;;16.13;14.70;;;;;;;;;;2093909;28;20032;-65
2023/06/19 01:38:03;;;;;;;16.45;14.95;;;;;;;;;;2093322;28;20028;-65
2023/06/19 01:39:23;;;;;;;16.27;14.88;;;;;;;;;;2092846;28;20036;-64
2023/06/19 01:40:42;;;;;;;18.23;16.50;;;;;;;;;;2092194;28;20041;-65
2023/06/19 01:42:01;;;;;;;17.88;16.38;;;;;;;;;;2095371;28;20056;-64
2023/06/19 01:43:21;;;;;;;18.15;16.33;;;;;;;;;;2094126;28;20018;-65
2023/06/19 01:44:40;;;;;;;17.63;15.95;;;;;;;;;;2092229;28;20033;-65
2023/06/19 01:46:00;;;;;;;18.50;16.70;;;;;;;;;;2092354;28;20040;-65
2023/06/19 01:47:19;;;;;;;18.42;16.67;;;;;;;;;;2092894;28;20119;-65
2023/06/19 01:48:39;;;;;;;17.95;16.25;;;;;;;;;;2094424;28;20029;-66
2023/06/19 01:49:58;;;;;;;17.80;16.10;;;;;;;;;;2094130;28;20037;-64
2023/06/19 01:51:17;;;;;;;17.35;15.40;;;;;;;;;;2094918;28;20032;-65
2023/06/19 01:52:36;;;;;;;22.75;17.08;;;;;;;;;;2093524;28;20036;-65
2023/06/19 01:53:55;;;;;;;16.67;15.18;;;;;;;;;;2094060;28;20021;-65
2023/06/19 01:55:14;;;;;;;16.13;14.55;;;;;;;;;;2093343;28;20036;-65
2023/06/19 01:56:33;;;;;;;16.60;15.18;;;;;;;;;;2085398;28;20029;-65
2023/06/19 01:57:52;;;;;;;16.00;14.60;;;;;;;;;;2090848;28;20032;-65
2023/06/19 01:59:11;;;;;;;16.00;14.48;;;;;;;;;;2094692;28;20037;-65
2023/06/19 02:00:32;;;;;;;16.00;14.60;;;;;;;;;;2089073;28;20421;-64
2023/06/19 02:01:51;;;;;;;17.25;15.75;;;;;;;;;;2095118;28;20021;-64
2023/06/19 02:03:09;;;;;;;17.08;15.48;;;;;;;;;;2094414;28;20025;-64
2023/06/19 02:04:28;;;;;;;16.40;15.00;;;;;;;;;;2091464;28;20489;-64
2023/06/19 02:05:47;;;;;;;16.58;15.05;;;;;;;;;;2096133;28;20107;-65
2023/06/19 02:07:06;;;;;;;16.63;14.90;;;;;;;;;;2083721;28;20037;-65
2023/06/19 02:08:25;;;;;;;16.58;15.05;;;;;;;;;;2090692;28;20061;-65
2023/06/19 02:09:44;;;;;;;15.52;14.02;;;;;;;;;;2093201;28;20048;-65
2023/06/19 02:11:03;;;;;;;14.98;13.73;;;;;;;;;;2083945;28;20029;-64
2023/06/19 02:12:22;;;;;;;16.65;15.18;;;;;;;;;;2090414;28;20032;-65
2023/06/19 02:13:41;;;;;;;16.20;14.52;;;;;;;;;;2094265;28;20516;-64
2023/06/19 02:15:00;;;;;;;15.07;13.85;;;;;;;;;;2091528;28;20032;-65
2023/06/19 02:16:19;;;;;;;16.33;14.52;;;;;;;;;;2096956;28;20489;-65
2023/06/19 02:17:38;;;;;;;14.82;13.63;;;;;;;;;;2083122;28;20104;-65
2023/06/19 02:18:57;;;;;;;14.50;13.40;;;;;;;;;;2089867;28;20017;-67
2023/06/19 02:20:16;;;;;;;14.63;13.23;;;;;;;;;;2091335;28;20032;-64
2023/06/19 02:21:35;;;;;;;14.75;13.35;;;;;;;;;;2091225;28;20016;-65
2023/06/19 02:22:54;;;;;;;14.48;13.48;;;;;;;;;;2092353;28;20022;-64
2023/06/19 02:24:13;;;;;;;13.82;12.82;;;;;;;;;;2090523;28;21412;-64
2023/06/19 02:25:34;;;;;;;14.73;13.38;;;;;;;;;;2089886;28;20025;-64
2023/06/19 02:26:53;;;;;;;15.63;14.20;;;;;;;;;;2091397;28;20045;-65
2023/06/19 02:28:12;;;;;;;13.88;12.73;;;;;;;;;;2094099;28;20020;-65
2023/06/19 02:29:33;;;;;;;14.43;13.32;;;;;;;;;;2093310;28;20033;-64
2023/06/19 02:30:53;;;;;;;14.95;13.32;;;;;;;;;;2091999;28;20029;-65
2023/06/19 02:32:13;;;;;;;14.95;13.60;;;;;;;;;;2094495;28;20033;-64
2023/06/19 02:33:32;;;;;;;14.75;13.35;;;;;;;;;;2094796;28;20033;-65
2023/06/19 02:34:51;;;;;;;14.60;13.30;;;;;;;;;;2090212;28;20028;-65
2023/06/19 02:36:10;;;;;;;14.32;13.13;;;;;;;;;;2094741;28;20505;-65
2023/06/19 02:37:29;;;;;;;17.30;14.13;;;;;;;;;;2088772;28;20032;-65
2023/06/19 02:38:49;;;;;;;15.48;14.05;;;;;;;;;;2095488;28;20493;-65
2023/06/19 02:40:09;;;;;;;15.60;14.20;;;;;;;;;;2094613;28;20033;-64
2023/06/19 02:41:28;;;;;;;15.85;14.35;;;;;;;;;;2094260;28;20494;-67
2023/06/19 02:42:47;;;;;;;15.85;14.38;;;;;;;;;;2085134;28;20033;-67
2023/06/19 02:44:05;;;;;;;16.30;14.90;;;;;;;;;;2090375;28;20040;-67
2023/06/19 02:45:24;;;;;;;14.68;13.38;;;;;;;;;;2093308;28;20489;-67
2023/06/19 02:46:43;;;;;;;14.50;13.30;;;;;;;;;;2095876;28;20025;-67
2023/06/19 02:48:02;;;;;;;14.35;13.15;;;;;;;;;;2093571;28;20032;-67
2023/06/19 02:49:21;;;;;;;15.50;14.27;;;;;;;;;;2093537;28;20033;-67
2023/06/19 02:50:40;;;;;;;14.55;13.35;;;;;;;;;;2086628;28;20037;-66
2023/06/19 02:52:00;;;;;;;15.23;13.93;;;;;;;;;;2090480;28;20032;-64
2023/06/19 02:53:19;;;;;;;15.55;14.15;;;;;;;;;;2093155;28;20036;-64
2023/06/19 02:54:38;;;;;;;15.80;14.27;;;;;;;;;;2095846;28;20111;-67
2023/06/19 02:55:57;;;;;;;14.05;12.93;;;;;;;;;;2092854;28;20037;-66
2023/06/19 02:57:16;;;;;;;14.75;12.95;;;;;;;;;;2093207;28;20028;-66
2023/06/19 02:58:37;;;;;;;14.88;13.55;;;;;;;;;;2095683;28;20033;-66
2023/06/19 02:59:55;;;;;;;14.65;13.13;;;;;;;;;;2093838;28;20063;-64
2023/06/19 03:01:14;;;;;;;14.30;13.00;;;;;;;;;;2093622;28;20032;-66
2023/06/19 03:02:33;;;;;;;15.18;13.98;;;;;;;;;;2083446;28;20045;-66
2023/06/19 03:03:52;;;;;;;14.05;12.63;;;;;;;;;;2091081;28;20099;-66
2023/06/19 03:05:14;;;;;;;14.45;13.35;;;;;;;;;;2096535;28;20033;-66
2023/06/19 03:06:39;;;;;;;14.48;13.07;;;;;;;;;;2093370;28;20032;-66
2023/06/19 03:07:58;;;;;;;15.88;13.02;;;;;;;;;;2094149;28;20385;-66
2023/06/19 03:09:17;;;;;;;14.10;12.70;;;;;;;;;;2087162;28;20041;-66
2023/06/19 03:10:37;;;;;;;14.25;12.85;;;;;;;;;;2092838;28;20021;-66
2023/06/19 03:11:55;;;;;;;14.13;12.82;;;;;;;;;;2094273;28;20025;-66
2023/06/19 03:13:14;;;;;;;13.93;12.82;;;;;;;;;;2096284;28;20032;-66
2023/06/19 03:14:33;;;;;;;14.73;13.32;;;;;;;;;;2093925;28;20402;-66
2023/06/19 03:15:52;;;;;;;14.77;13.10;;;;;;;;;;2093125;28;20033;-63
2023/06/19 03:17:12;;;;;;;13.20;12.02;;;;;;;;;;2095110;28;20025;-66
2023/06/19 03:18:31;;;;;;;12.43;11.27;;;;;;;;;;2095677;28;20020;-67
2023/06/19 03:19:50;;;;;;;13.52;11.63;;;;;;;;;;2086125;28;20493;-65
2023/06/19 03:21:09;;;;;;;13.25;12.05;;;;;;;;;;2092035;28;20040;-66
2023/06/19 03:22:28;;;;;;;13.52;12.50;;;;;;;;;;2092366;28;20048;-65
2023/06/19 03:23:47;;;;;;;13.45;12.35;;;;;;;;;;2094210;28;20024;-65
2023/06/19 03:25:07;;;;;;;13.02;11.77;;;;;;;;;;2096043;28;20032;-66
2023/06/19 03:26:26;;;;;;;14.60;12.30;;;;;;;;;;2095259;28;20489;-66
2023/06/19 03:27:45;;;;;;;13.23;12.05;;;;;;;;;;2095290;28;20040;-65
2023/06/19 03:29:04;;;;;;;12.40;11.30;;;;;;;;;;2093833;28;20028;-64
2023/06/19 03:30:23;;;;;;;12.77;11.77;;;;;;;;;;2093532;28;20036;-65
2023/06/19 03:31:42;;;;;;;13.02;11.82;;;;;;;;;;2095119;28;20025;-65
2023/06/19 03:33:00;;;;;;;13.10;12.00;;;;;;;;;;2093932;28;20032;-64
2023/06/19 03:34:19;;;;;;;14.63;11.77;;;;;;;;;;2096930;28;20032;-66
2023/06/19 03:35:38;;;;;;;12.88;11.57;;;;;;;;;;2095810;28;20025;-66
2023/06/19 03:36:57;;;;;;;13.13;11.93;;;;;;;;;;2094027;28;20021;-67
2023/06/19 03:38:16;;;;;;;13.02;12.00;;;;;;;;;;2097581;28;20041;-65
2023/06/19 03:39:35;;;;;;;13.73;11.95;;;;;;;;;;2085501;28;20029;-66
2023/06/19 03:40:55;;;;;;;16.90;11.77;;;;;;;;;;2093391;28;20161;-65
2023/06/19 03:42:14;;;;;;;12.32;11.32;;;;;;;;;;2092975;28;20111;-67
2023/06/19 03:43:33;;;;;;;11.77;10.82;;;;;;;;;;2093312;28;20095;-66
2023/06/19 03:44:52;;;;;;;11.80;10.85;;;;;;;;;;2096941;28;20025;-66
2023/06/19 03:46:11;;;;;;;11.88;10.93;;;;;;;;;;2093634;28;20056;-66
2023/06/19 03:47:30;;;;;;;12.77;11.57;;;;;;;;;;2095128;28;20033;-66
2023/06/19 03:48:49;;;;;;;12.02;11.02;;;;;;;;;;2085983;28;20028;-65
2023/06/19 03:50:09;;;;;;;12.05;11.02;;;;;;;;;;2093662;28;20041;-66
2023/06/19 03:51:28;;;;;;;11.73;10.73;;;;;;;;;;2093789;28;20580;-65
2023/06/19 03:52:47;;;;;;;12.98;11.20;;;;;;;;;;2096907;28;20469;-66
2023/06/19 03:54:06;;;;;;;13.00;11.77;;;;;;;;;;2084536;28;20033;-65
2023/06/19 03:55:25;;;;;;;11.80;10.70;;;;;;;;;;2091739;28;20025;-65
2023/06/19 03:56:44;;;;;;;13.02;11.68;;;;;;;;;;2093117;28;20029;-66
2023/06/19 03:58:03;;;;;;;11.40;10.40;;;;;;;;;;2095135;28;20151;-65
2023/06/19 03:59:22;;;;;;;11.82;10.82;;;;;;;;;;2095318;28;20107;-66
2023/06/19 04:00:41;;;;;;;12.38;11.18;;;;;;;;;;2091467;28;20111;-66
2023/06/19 04:02:00;;;;;;;13.02;11.70;;;;;;;;;;2095053;28;20024;-66
2023/06/19 04:03:19;;;;;;;12.73;11.63;;;;;;;;;;2094276;28;20040;-65
2023/06/19 04:04:39;;;;;;;12.10;10.90;;;;;;;;;;2094653;28;20045;-65
2023/06/19 04:05:58;;;;;;;12.68;11.45;;;;;;;;;;2096006;28;20126;-65
2023/06/19 04:07:17;;;;;;;12.98;11.88;;;;;;;;;;2088900;28;20151;-65
2023/06/19 04:08:35;;;;;;;12.68;11.50;;;;;;;;;;2094144;28;20448;-65
2023/06/19 04:09:55;;;;;;;11.00;10.07;;;;;;;;;;2092676;28;20032;-65
2023/06/19 04:11:14;;;;;;;12.68;11.48;;;;;;;;;;2091646;28;20055;-65
2023/06/19 04:12:33;;;;;;;11.98;10.77;;;;;;;;;;2092259;28;20064;-65
2023/06/19 04:13:52;;;;;;;11.85;10.65;;;;;;;;;;2095713;28;20028;-65
2023/06/19 04:15:11;;;;;;;13.93;11.82;;;;;;;;;;2092894;28;20024;-65
2023/06/19 04:16:30;;;;;;;12.20;11.30;;;;;;;;;;2094275;28;20478;-65
2023/06/19 04:17:49;;;;;;;12.50;11.43;;;;;;;;;;2094683;28;20036;-65
2023/06/19 04:19:07;;;;;;;12.50;11.43;;;;;;;;;;2093187;28;20060;-65
2023/06/19 04:20:27;;;;;;;13.10;11.90;;;;;;;;;;2096915;28;20029;-66
2023/06/19 04:21:45;;;;;;;12.85;11.85;;;;;;;;;;2084715;28;20029;-66
2023/06/19 04:23:04;;;;;;;14.80;11.93;;;;;;;;;;2092534;28;20103;-66
2023/06/19 04:24:23;;;;;;;13.75;12.50;;;;;;;;;;2082052;28;20482;-66
2023/06/19 04:25:42;;;;;;;13.45;12.30;;;;;;;;;;2091844;28;20036;-67
2023/06/19 04:27:01;;;;;;;13.60;11.60;;;;;;;;;;2094275;28;20032;-66
2023/06/19 04:28:20;;;;;;;14.25;12.38;;;;;;;;;;2094645;28;20064;-67
2023/06/19 04:29:39;;;;;;;13.70;12.48;;;;;;;;;;2093760;28;20040;-66
2023/06/19 04:31:01;;;;;;;14.75;12.68;;;;;;;;;;2092000;28;20408;-66
2023/06/19 04:32:20;;;;;;;16.48;11.95;;;;;;;;;;2094877;28;20037;-66
2023/06/19 04:33:40;;;;;;;17.38;12.05;;;;;;;;;;2091212;28;20442;-66
2023/06/19 04:34:59;;;;;;;14.00;12.60;;;;;;;;;;2095824;28;20063;-66
2023/06/19 04:36:18;;;;;;;13.40;12.27;;;;;;;;;;2096387;28;20096;-67
2023/06/19 04:37:37;;;;;;;14.20;12.43;;;;;;;;;;2091308;28;20036;-67
2023/06/19 04:38:56;;;;;;;14.93;13.27;;;;;;;;;;2094077;28;20017;-66
2023/06/19 04:40:15;;;;;;;14.38;13.05;;;;;;;;;;2092704;28;20028;-66
2023/06/19 04:41:38;;;;;;;16.27;13.35;;;;;;;;;;2094496;28;20032;-66
2023/06/19 04:42:57;;;;;;;14.68;13.10;;;;;;;;;;2093342;28;20449;-66
2023/06/19 04:44:16;;;;;;;14.55;13.25;;;;;;;;;;2092149;28;20513;-66
2023/06/19 04:45:35;;;;;;;15.23;13.60;;;;;;;;;;2091004;28;20044;-66
2023/06/19 04:47:00;;;;;;;13.95;12.60;;;;;;;;;;2095392;28;20036;-65
2023/06/19 04:48:19;;;;;;;14.50;13.00;;;;;;;;;;2094601;28;20143;-65
2023/06/19 04:49:38;;;;;;;14.02;12.63;;;;;;;;;;2094559;28;20485;-66
2023/06/19 04:51:00;;;;;;;15.52;13.88;;;;;;;;;;2093353;28;20505;-66
2023/06/19 04:52:19;;;;;;;19.15;13.75;;;;;;;;;;2091391;28;21222;-65
2023/06/19 04:53:38;;;;;;;14.13;12.80;;;;;;;;;;2095879;28;20036;-67
2023/06/19 04:54:58;;;;;;;14.27;12.93;;;;;;;;;;2093850;28;20040;-67
2023/06/19 04:56:17;;;;;;;14.85;13.35;;;;;;;;;;2092505;28;20029;-67
2023/06/19 04:57:38;;;;;;;13.50;12.18;;;;;;;;;;2090498;28;20111;-67
2023/06/19 04:58:59;;;;;;;14.57;13.27;;;;;;;;;;2086815;28;20041;-67
2023/06/19 05:00:23;;;;;;;14.48;13.02;;;;;;;;;;2088677;28;20420;-66
2023/06/19 05:01:42;;;;;;;15.23;13.82;;;;;;;;;;2093499;28;20029;-67
2023/06/19 05:03:01;;;;;;;17.25;14.20;;;;;;;;;;2095567;28;20041;-67
2023/06/19 05:04:20;;;;;;;15.70;13.25;;;;;;;;;;2093334;28;20041;-67
2023/06/19 05:05:39;;;;;;;15.20;13.35;;;;;;;;;;2093118;28;20029;-66
2023/06/19 05:06:58;;;;;;;15.45;13.85;;;;;;;;;;2092756;28;20029;-66
2023/06/19 05:08:18;;;;;;;15.25;13.85;;;;;;;;;;2094790;28;20333;-66
2023/06/19 05:09:37;;;;;;;14.63;13.10;;;;;;;;;;2093020;28;20024;-67
2023/06/19 05:10:57;;;;;;;15.07;13.60;;;;;;;;;;2093061;28;20032;-67
2023/06/19 05:12:16;;;;;;;15.82;13.55;;;;;;;;;;2092374;28;20028;-67
2023/06/19 05:13:35;;;;;;;15.40;13.40;;;;;;;;;;2093149;28;20037;-67
2023/06/19 05:14:54;;;;;;;15.32;13.85;;;;;;;;;;2089812;28;20036;-67
2023/06/19 05:16:16;;;;;;;14.77;13.27;;;;;;;;;;2090173;28;20028;-66
2023/06/19 05:17:35;;;;;;;15.38;13.60;;;;;;;;;;2088486;28;20037;-66
2023/06/19 05:18:54;;;;;;;15.70;13.63;;;;;;;;;;2081657;28;20025;-66
2023/06/19 05:20:12;;;;;;;17.42;14.13;;;;;;;;;;2087828;28;20021;-66
2023/06/19 05:21:31;;;;;;;14.63;13.38;;;;;;;;;;2090158;28;20115;-66
2023/06/19 05:22:50;;;;;;;16.48;14.75;;;;;;;;;;2087888;28;20433;-66
2023/06/19 05:24:09;;;;;;;16.20;14.52;;;;;;;;;;2084994;28;20134;-66
2023/06/19 05:25:28;;;;;;;15.75;14.27;;;;;;;;;;2091202;28;20037;-66
2023/06/19 05:26:47;;;;;;;15.35;13.68;;;;;;;;;;2089471;28;20037;-66
2023/06/19 05:28:06;;;;;;;16.30;13.90;;;;;;;;;;2089806;28;20036;-68
2023/06/19 05:29:25;;;;;;;20.15;15.13;;;;;;;;;;2090124;28;20029;-68
2023/06/19 05:30:44;;;;;;;15.27;13.57;;;;;;;;;;2089710;28;20115;-68
2023/06/19 05:32:04;;;;;;;16.17;13.88;;;;;;;;;;2090331;28;20041;-68
2023/06/19 05:33:23;;;;;;;15.93;14.00;;;;;;;;;;2093907;28;20040;-68
2023/06/19 05:34:42;;;;;;;15.98;14.23;;;;;;;;;;2083613;28;20028;-67
2023/06/19 05:36:01;;;;;;;15.77;14.23;;;;;;;;;;2088078;28;20025;-67
2023/06/19 05:37:21;;;;;;;15.35;13.85;;;;;;;;;;2082714;28;20041;-67
2023/06/19 05:38:41;;;;;;;15.95;14.35;;;;;;;;;;2078957;28;20107;-67
2023/06/19 05:40:00;;;;;;;16.50;14.82;;;;;;;;;;2090203;28;20501;-67
2023/06/19 05:41:19;;;;;;;17.35;13.77;;;;;;;;;;2081399;28;20063;-68
2023/06/19 05:42:39;;;;;;;17.95;15.52;;;;;;;;;;2091433;28;20454;-68
2023/06/19 05:43:58;;;;;;;15.77;14.23;;;;;;;;;;2091686;28;20033;-66
2023/06/19 05:45:17;;;;;;;15.65;14.15;;;;;;;;;;2091295;28;20029;-66
2023/06/19 05:46:36;;;;;;;15.85;14.30;;;;;;;;;;2085501;28;20577;-66
2023/06/19 05:47:55;;;;;;;15.77;14.13;;;;;;;;;;2081361;28;20032;-66
2023/06/19 05:49:14;;;;;;;15.65;14.07;;;;;;;;;;2088294;28;20024;-65
2023/06/19 05:50:33;;;;;;;16.80;14.23;;;;;;;;;;2088228;28;20033;-66
2023/06/19 05:51:52;;;;;;;17.73;14.60;;;;;;;;;;2091246;28;20433;-67
2023/06/19 05:53:11;;;;;;;16.55;14.10;;;;;;;;;;2089749;28;20044;-67
2023/06/19 05:54:30;;;;;;;16.90;13.73;;;;;;;;;;2095595;28;20017;-67
2023/06/19 05:55:49;;;;;;;19.98;14.82;;;;;;;;;;2092736;28;20028;-67
2023/06/19 05:57:08;;;;;;;16.60;14.75;;;;;;;;;;2082924;28;20066;-67
2023/06/19 05:58:27;;;;;;;18.52;15.13;;;;;;;;;;2087623;28;20029;-67
2023/06/19 05:59:47;;;;;;;20.73;15.63;;;;;;;;;;2091575;28;20029;-67
2023/06/19 06:01:06;;;;;;;15.55;14.05;;;;;;;;;;2091410;28;20032;-67
2023/06/19 06:02:26;;;;;;;16.90;15.10;;;;;;;;;;2090511;28;20041;-67
2023/06/19 06:03:45;;;;;;;17.25;15.50;;;;;;;;;;2077496;28;20441;-67
2023/06/19 06:05:04;;;;;;;16.48;14.93;;;;;;;;;;2087585;28;20040;-67
2023/06/19 06:06:23;;;;;;;18.75;15.90;;;;;;;;;;2092078;28;20501;-67
2023/06/19 06:07:42;;;;;;;18.67;14.80;;;;;;;;;;2092711;28;20064;-67
2023/06/19 06:09:01;;;;;;;18.65;14.93;;;;;;;;;;2091668;28;20021;-67
2023/06/19 06:10:23;;;;;;;16.73;14.65;;;;;;;;;;2091538;28;20477;-66
2023/06/19 06:11:42;;;;;;;16.88;14.95;;;;;;;;;;2093636;28;20021;-66
2023/06/19 06:13:01;;;;;;;16.27;14.70;;;;;;;;;;2093518;28;20029;-66
2023/06/19 06:14:21;;;;;;;16.30;14.57;;;;;;;;;;2091862;28;20024;-66
2023/06/19 06:15:40;;;;;;;17.42;15.43;;;;;;;;;;2082001;28;20018;-66
2023/06/19 06:16:59;;;;;;;15.38;13.82;;;;;;;;;;2088682;28;20485;-67
2023/06/19 06:18:18;;;;;;;18.20;16.30;;;;;;;;;;2095480;28;20032;-66
2023/06/19 06:19:38;;;;;;;17.00;15.23;;;;;;;;;;2093598;28;20115;-66
2023/06/19 06:20:59;;;;;;;17.45;14.25;;;;;;;;;;2095541;28;20032;-67
2023/06/19 06:22:18;;;;;;;17.27;15.73;;;;;;;;;;2094440;28;20032;-65
2023/06/19 06:23:37;;;;;;;16.85;15.25;;;;;;;;;;2092928;28;20024;-65
2023/06/19 06:24:56;;;;;;;16.85;14.43;;;;;;;;;;2091524;28;20029;-66
2023/06/19 06:26:15;;;;;;;18.02;15.35;;;;;;;;;;2084495;28;20041;-65
2023/06/19 06:27:34;;;;;;;16.10;14.52;;;;;;;;;;2087077;28;20032;-65
2023/06/19 06:28:53;;;;;;;15.15;13.55;;;;;;;;;;2090047;28;20612;-65
2023/06/19 06:30:12;;;;;;;16.52;14.73;;;;;;;;;;2091408;28;20037;-66
2023/06/19 06:31:31;;;;;;;18.65;14.65;;;;;;;;;;2091120;28;20041;-67
2023/06/19 06:32:51;;;;;;;14.85;13.15;;;;;;;;;;2080696;28;20581;-66
2023/06/19 06:34:10;;;;;;;16.23;14.35;;;;;;;;;;2088564;28;20570;-66
2023/06/19 06:35:29;;;;;;;15.10;13.65;;;;;;;;;;2094696;28;20048;-65
2023/06/19 06:36:47;;;;;;;14.38;12.98;;;;;;;;;;2098105;28;20443;-65
2023/06/19 06:38:06;;;;;;;14.95;13.57;;;;;;;;;;2085582;28;20029;-65
2023/06/19 06:39:26;;;;;;;14.25;12.95;;;;;;;;;;2087266;28;20025;-66
2023/06/19 06:40:45;;;;;;;15.38;13.75;;;;;;;;;;2094585;28;20478;-66
2023/06/19 06:42:04;;;;;;;13.85;12.68;;;;;;;;;;2096840;28;20024;-66
2023/06/19 06:43:23;;;;;;;14.40;13.10;;;;;;;;;;2097443;28;20463;-65
2023/06/19 06:44:42;;;;;;;15.30;13.05;;;;;;;;;;2096050;28;20040;-66
2023/06/19 06:46:01;;;;;;;14.68;13.27;;;;;;;;;;2092873;28;20028;-66
2023/06/19 06:47:20;;;;;;;13.95;12.68;;;;;;;;;;2091400;28;20485;-66
2023/06/19 06:48:39;;;;;;;13.77;12.35;;;;;;;;;;2095586;28;20040;-66
2023/06/19 06:49:58;;;;;;;16.38;13.35;;;;;;;;;;2096998;28;20025;-67
2023/06/19 06:51:17;;;;;;;15.10;13.57;;;;;;;;;;2096025;28;20776;-66
2023/06/19 06:52:36;;;;;;;18.23;14.27;;;;;;;;;;2095209;28;20033;-66
2023/06/19 06:53:55;;;;;;;17.17;14.00;;;;;;;;;;2095490;28;20237;-67
2023/06/19 06:55:14;;;;;;;14.15;12.88;;;;;;;;;;2095298;28;20032;-67
2023/06/19 06:56:33;;;;;;;14.88;13.10;;;;;;;;;;2097981;28;20032;-64
2023/06/19 06:57:52;;;;;;;14.82;13.52;;;;;;;;;;2096006;28;20533;-64
2023/06/19 06:59:11;;;;;;;15.90;13.93;;;;;;;;;;2096061;28;20481;-65
2023/06/19 07:00:30;;;;;;;17.67;13.88;;;;;;;;;;2086497;28;20508;-65
2023/06/19 07:01:49;;;;;;;14.68;12.90;;;;;;;;;;2090699;28;20103;-65
2023/06/19 07:03:08;;;;;;;14.70;13.10;;;;;;;;;;2092745;28;20037;-64
2023/06/19 07:04:27;;;;;;;14.40;12.40;;;;;;;;;;2096188;28;20032;-64
2023/06/19 07:05:47;;;;;;;14.25;12.73;;;;;;;;;;2096837;28;20025;-65
2023/06/19 07:07:06;;;;;;;12.90;11.70;;;;;;;;;;2092935;28;20033;-65
2023/06/19 07:08:25;;;;;;;13.55;12.35;;;;;;;;;;2092344;28;20029;-64
2023/06/19 07:09:44;;;;;;;13.52;12.32;;;;;;;;;;2096354;28;20389;-65
2023/06/19 07:11:03;;;;;;;12.48;11.48;;;;;;;;;;2094185;28;20041;-64
2023/06/19 07:12:22;;;;;;;12.80;11.60;;;;;;;;;;2095257;28;20020;-64
2023/06/19 07:13:42;;;;;;;12.38;11.07;;;;;;;;;;2095786;28;20406;-64
2023/06/19 07:15:01;;;;;;;13.85;11.60;;;;;;;;;;2096087;28;20032;-64
2023/06/19 07:16:20;;;;;;;12.32;11.25;;;;;;;;;;2095795;28;20116;-63
2023/06/19 07:17:39;;;;;;;12.13;11.02;;;;;;;;;;2093324;28;20033;-64
2023/06/19 07:18:58;;;;;;;11.77;10.60;;;;;;;;;;2095092;28;20564;-63
2023/06/19 07:20:17;;;;;;;12.63;11.32;;;;;;;;;;2094950;28;20116;-64
2023/06/19 07:21:36;;;;;;;14.32;12.95;;;;;;;;;;2095492;28;20021;-64
2023/06/19 07:22:55;;;;;;;13.90;11.20;;;;;;;;;;2094354;28;20025;-64
2023/06/19 07:24:14;;;;;;;12.07;10.80;;;;;;;;;;2096680;28;20433;-63
2023/06/19 07:25:34;;;;;;;10.93;10.02;;;;;;;;;;2093349;28;20037;-63
2023/06/19 07:26:53;;;;;;;13.10;10.50;;;;;;;;;;2096722;28;20424;-65
2023/06/19 07:28:12;;;;;;;11.25;10.25;;;;;;;;;;2094494;28;20040;-67
2023/06/19 07:29:32;;;;;;;10.75;9.63;;;;;;;;;;2085991;28;20032;-65
2023/06/19 07:30:52;;;;;;;10.35;9.27;;;;;;;;;;2091831;28;20448;-65
2023/06/19 07:32:11;;;;;;;10.48;9.50;;;;;;;;;;2094657;28;20025;-65
2023/06/19 07:33:30;;;;;;;10.63;9.52;;;;;;;;;;2085525;28;20029;-65
2023/06/19 07:34:49;;;;;;;11.93;9.68;;;;;;;;;;2092433;28;20481;-65
2023/06/19 07:36:13;;;;;;;10.18;8.98;;;;;;;;;;2093998;28;20032;-64
2023/06/19 07:37:32;;;;;;;9.85;8.95;;;;;;;;;;2096381;28;20033;-64
2023/06/19 07:38:51;;;;;;;10.05;9.35;;;;;;;;;;2095980;28;20021;-65
2023/06/19 07:40:11;;;;;;;10.25;9.32;;;;;;;;;;2088206;28;20032;-67
2023/06/19 07:41:29;;;;;;;10.75;9.85;;;;;;;;;;2093253;28;20025;-64
2023/06/19 07:42:48;;;;;;;10.02;9.27;;;;;;;;;;2094572;28;20021;-65